EA1YO-13 Weather Reports


Display with metric or nautical units.
time (UTC)temp
F
wind
direction
speed
MPH
gust
MPH
rain 1hr
in
rain 24hr
in
rain mn
in
humidity
%
barometer
mb
20200406030544 56 0 1.0 2.0 0.00 0.00 0.00 79 1016.7
20200406030040 56 0 1.0 2.0 0.00 0.00 0.00 79 1016.8
20200406025534 56 0.0 0.0 0.00 0.00 0.00 79 1016.8
20200406025029 56 338 0.0 2.0 0.00 0.00 0.00 79 1016.7
20200406024523 56 338 0.0 2.0 0.00 0.00 0.00 79 1016.8
20200406024018 56 338 0.0 2.0 0.00 0.00 0.00 79 1016.7
20200406023613 56 351 1.0 2.0 0.00 0.00 0.00 78 1016.7
20200406023108 57 0.0 2.0 0.00 0.00 0.00 78 1016.5
20200406022603 57 0.0 0.0 0.00 0.00 0.00 78 1016.5
20200406022057 57 0.0 2.0 0.00 0.00 0.00 78 1016.5
20200406021552 57 0 1.0 2.0 0.00 0.00 0.00 78 1016.4
20200406021046 57 356 1.0 2.0 0.00 0.00 0.00 77 1016.4
20200406020540 57 338 0.0 2.0 0.00 0.00 0.00 77 1016.4
20200406020034 57 0.0 0.0 0.00 0.00 0.00 77 1016.5
20200406015529 57 0.0 2.0 0.00 0.00 0.00 76 1016.2
20200406015023 57 338 0.0 2.0 0.00 0.00 0.00 76 1016.1
20200406014617 58 0.0 0.0 0.00 0.00 0.00 75 1016.2
20200406014113 58 0.0 0.0 0.00 0.00 0.00 75 1016.2
20200406013607 58 0.0 2.0 0.00 0.00 0.00 74 1016.1
20200406013100 58 0.0 0.0 0.00 0.00 0.00 74 1016.2
20200406012555 58 338 0.0 2.0 0.00 0.00 0.00 74 1016.0
20200406012050 58 338 2.0 2.0 0.00 0.00 0.00 74 1015.9
20200406011546 59 338 2.0 4.0 0.00 0.00 0.00 73 1015.9
20200406011040 59 342 1.0 4.0 0.00 0.00 0.00 73 1016.0
20200406010534 59 0 1.0 2.0 0.00 0.00 0.00 72 1016.0
20200406010029 59 345 1.0 2.0 0.00 0.00 0.00 72 1015.9
20200406005524 59 0.0 2.0 0.00 0.00 0.00 71 1015.9
20200406005018 60 225 1.0 4.0 0.00 0.00 0.00 70 1015.9
20200406004613 60 187 0.0 2.0 0.00 0.00 0.00 70 1016.1
20200406004108 60 180 1.0 2.0 0.00 0.00 0.00 70 1016.0
20200406003603 60 180 1.0 2.0 0.00 0.00 0.00 70 1015.9
20200406003058 60 192 2.0 4.0 0.00 0.00 0.00 70 1015.8
20200406002553 60 186 2.0 4.0 0.00 0.00 0.00 69 1015.8
20200406002047 60 229 2.0 4.0 0.00 0.00 0.00 69 1015.8
20200406001541 60 235 3.0 7.0 0.00 0.00 0.00 69 1015.7
20200406001035 60 234 5.0 8.0 0.00 0.00 0.00 69 1015.7
20200406000530 61 198 3.0 6.0 0.00 0.00 0.00 68 1015.7
20200406000025 61 203 1.0 2.0 0.00 0.00 0.00 67 1015.7
20200405235520 61 205 2.0 4.0 0.00 0.00 0.00 66 1015.5
20200405235115 61 272 3.0 4.0 0.00 0.00 0.00 65 1015.6
20200405234609 61 299 2.0 6.0 0.00 0.00 0.00 65 1015.6
20200405234104 61 236 1.0 4.0 0.00 0.00 0.00 64 1015.7
20200405233558 61 276 2.0 4.0 0.00 0.00 0.00 64 1015.5
20200405233053 62 270 3.0 8.0 0.00 0.00 0.00 63 1015.5
20200405232550 62 309 4.0 8.0 0.00 0.00 0.00 63 1015.4
20200405232044 62 276 6.0 13.0 0.00 0.00 0.00 63 1015.3
20200405231538 62 284 4.0 9.0 0.00 0.00 0.00 63 1015.1
20200405231033 62 269 6.0 11.0 0.00 0.00 0.00 62 1015.1
20200405230527 62 290 6.0 11.0 0.00 0.00 0.00 62 1014.9
20200405230021 62 273 6.0 13.0 0.00 0.00 0.00 62 1014.8
20200405225616 62 251 5.0 9.0 0.00 0.00 0.00 63 1014.7
20200405225109 62 292 7.0 11.0 0.00 0.00 0.00 62 1014.6
20200405224605 62 295 7.0 14.0 0.00 0.00 0.00 60 1014.4
20200405224059 62 291 7.0 13.0 0.00 0.00 0.00 58 1014.3
20200405223553 62 296 7.0 13.0 0.00 0.00 0.00 60 1014.1
20200405223048 62 300 5.0 9.0 0.00 0.00 0.00 59 1014.1
20200405222544 63 307 4.0 8.0 0.00 0.00 0.00 57 1014.0
20200405222039 64 318 3.0 8.0 0.00 0.00 0.00 54 1013.9
20200405063058 63 206 4.0 8.0 0.00 0.00 0.00 48 1010.8
20200405062553 63 224 5.0 8.0 0.00 0.00 0.00 48 1010.8
20200405062049 63 208 3.0 6.0 0.00 0.00 0.00 48 1010.8
20200405061545 64 168 7.0 11.0 0.00 0.00 0.00 47 1010.8
20200405061041 64 169 7.0 13.0 0.00 0.00 0.00 47 1010.7
20200405060533 63 176 7.0 17.0 0.00 0.00 0.00 47 1010.5
20200405060028 63 183 7.0 14.0 0.00 0.00 0.00 47 1010.6
20200405055523 63 156 6.0 14.0 0.00 0.00 0.00 48 1010.6
20200405055119 63 133 7.0 11.0 0.00 0.00 0.00 48 1010.6
20200405054612 63 172 7.0 11.0 0.00 0.00 0.00 48 1010.6
20200405054108 63 133 7.0 13.0 0.00 0.00 0.00 48 1010.6
20200405053602 63 212 7.0 14.0 0.00 0.00 0.00 48 1010.5
20200405053058 63 186 10.0 17.0 0.00 0.00 0.00 48 1010.4
20200405052552 63 183 8.0 16.0 0.00 0.00 0.00 48 1010.4
20200405052047 63 150 9.0 18.0 0.00 0.00 0.00 48 1010.4
20200405051541 63 202 8.0 17.0 0.00 0.00 0.00 48 1010.5
20200405051035 63 191 10.0 20.0 0.00 0.00 0.00 48 1010.4
20200405050530 63 212 9.0 14.0 0.00 0.00 0.00 48 1010.4
20200405050026 63 192 11.0 18.0 0.00 0.00 0.00 47 1010.3
20200405045520 63 206 8.0 17.0 0.00 0.00 0.00 48 1010.1
20200405045114 64 178 10.0 20.0 0.00 0.00 0.00 47 1010.2
20200405044608 64 172 11.0 18.0 0.00 0.00 0.00 47 1010.2
20200405044103 64 199 10.0 21.0 0.00 0.00 0.00 47 1010.2
20200405043557 64 171 13.0 27.0 0.00 0.00 0.00 46 1010.1
20200405043052 64 169 10.0 22.0 0.00 0.00 0.00 46 1010.1
20200405042546 64 196 11.0 21.0 0.00 0.00 0.00 46 1010.2
20200405042044 64 187 13.0 20.0 0.00 0.00 0.00 46 1010.1
20200405041534 64 139 15.0 27.0 0.00 0.00 0.00 46 1010.0
20200405041030 64 145 14.0 23.0 0.00 0.00 0.00 46 1009.9
20200405040523 64 170 11.0 22.0 0.00 0.00 0.00 46 1010.0
20200405040118 64 189 14.0 23.0 0.00 0.00 0.00 46 1010.2
20200405035613 64 144 12.0 21.0 0.00 0.00 0.00 46 1010.1
20200405035107 64 157 12.0 29.0 0.00 0.00 0.00 46 1010.2
20200405034602 64 179 11.0 20.0 0.00 0.00 0.00 46 1010.3
20200405034059 64 163 9.0 15.0 0.00 0.00 0.00 46 1010.5
20200405033553 64 136 10.0 18.0 0.00 0.00 0.00 46 1010.5
20200405033048 64 162 12.0 22.0 0.00 0.00 0.00 45 1010.6
20200405032543 64 169 12.0 22.0 0.00 0.00 0.00 46 1010.4
20200405032038 65 178 14.0 25.0 0.00 0.00 0.00 45 1010.5
20200405031532 64 192 14.0 25.0 0.00 0.00 0.00 45 1010.4
20200405031028 65 163 15.0 29.0 0.00 0.00 0.00 45 1010.5